Weather reports worldwide

Advertisment
Cieza, Spain (8363): temperature & dewpoint: 16.06.2018 20:00:00 - 22.06.2018 20:00:00 (CEST)Cieza, Spain (8363): wind speed & gusts: 16.06.2018 20:00:00 - 22.06.2018 20:00:00 (CEST)Cieza, Spain (8363): wind direction: 16.06.2018 20:00:00 - 22.06.2018 20:00:00 (CEST)Cieza, Spain (8363): precipitation: 16.06.2018 20:00:00 - 22.06.2018 20:00:00 (CEST)
Date & Time tt [°C] td [°C] ff [km/h] ff [kn] fx [km/h] fx [kn] dd rr [mm]
22.06.2018 20:00:00 - - - - - - - -
22.06.2018 19:00:00 30,0 11,4 18 10 34 19 ESE 0,0
22.06.2018 18:00:00 31,7 12,5 18 10 35 19 ESE 0,0
22.06.2018 17:00:00 32,5 11,7 16 9 32 18 ESE 0,0
22.06.2018 16:00:00 32,4 12,6 16 9 31 17 ESE 0,0
22.06.2018 15:00:00 32,5 12,2 15 8 34 19 ESE 0,0
22.06.2018 14:00:00 31,6 11,9 16 9 29 15 SE -
22.06.2018 13:00:00 31,1 12,0 7 4 19 10 ESE 0,0
22.06.2018 12:00:00 29,1 13,0 3 2 13 7 NW 0,0
22.06.2018 11:00:00 25,8 13,0 8 4 15 8 W 0,0
22.06.2018 10:00:00 23,0 13,8 10 6 15 8 W 0,0
22.06.2018 09:00:00 20,2 13,2 7 4 12 6 WNW 0,0
22.06.2018 08:00:00 17,7 12,8 8 4 13 7 WNW -
22.06.2018 07:00:00 16,9 12,6 9 5 12 6 W 0,0
22.06.2018 06:00:00 17,3 12,8 8 4 10 5 W 0,0
22.06.2018 05:00:00 17,8 12,8 0 0 6 3 N 0,0
22.06.2018 04:00:00 17,6 13,8 1 1 5 3 ESE 0,0
22.06.2018 03:00:00 18,8 13,7 2 1 8 4 E 0,0
22.06.2018 02:00:00 19,8 13,5 1 0 5 3 E -
22.06.2018 01:00:00 20,7 12,6 0 0 5 3 N 0,0
22.06.2018 00:00:00 22,9 11,9 3 1 13 7 SE 0,0
21.06.2018 23:00:00 24,2 11,6 10 5 17 9 SE 0,0
21.06.2018 22:00:00 25,2 11,0 11 6 21 11 SE 0,0
21.06.2018 21:00:00 26,7 10,4 13 7 26 14 ESE 0,0
21.06.2018 20:00:00 28,5 10,6 14 8 26 14 ESE -
21.06.2018 19:00:00 29,7 10,8 16 9 29 16 ESE 0,0
21.06.2018 18:00:00 30,3 11,3 14 8 32 17 SE 0,0
21.06.2018 17:00:00 30,6 10,5 19 11 32 17 SE 0,0
21.06.2018 16:00:00 30,4 9,8 17 9 36 20 SE 0,0
21.06.2018 15:00:00 30,7 10,6 18 10 29 16 SE 0,0
21.06.2018 14:00:00 30,1 11,1 13 7 24 13 ESE -
21.06.2018 13:00:00 29,0 13,3 6 3 14 8 E 0,0
21.06.2018 12:00:00 27,0 13,0 3 2 15 8 WNW 0,0
21.06.2018 11:00:00 24,4 13,3 6 4 16 8 W 0,0
21.06.2018 10:00:00 22,6 13,4 9 5 17 9 W 0,0
21.06.2018 09:00:00 19,9 13,2 9 5 16 8 W 0,0
21.06.2018 08:00:00 17,4 13,2 8 4 12 7 W -
21.06.2018 07:00:00 16,9 13,1 7 4 12 6 W 0,0
21.06.2018 06:00:00 17,0 13,4 6 4 14 7 WNW 0,0
21.06.2018 05:00:00 17,4 13,6 5 3 7 4 WNW 0,0
21.06.2018 04:00:00 18,3 13,4 0 0 8 4 N 0,0
21.06.2018 03:00:00 18,5 14,1 1 1 5 3 E 0,0
21.06.2018 02:00:00 19,6 13,9 0 0 5 3 N -
21.06.2018 01:00:00 20,7 13,7 0 0 6 3 N 0,0
21.06.2018 00:00:00 22,0 13,4 6 3 17 9 SE 0,0
20.06.2018 23:00:00 22,5 13,6 14 8 23 12 SE 0,0
20.06.2018 22:00:00 23,7 12,3 16 8 27 14 SE 0,0
20.06.2018 21:00:00 25,4 10,4 16 9 31 17 ESE 0,0
20.06.2018 20:00:00 26,8 10,0 18 10 34 18 ESE -
20.06.2018 19:00:00 28,1 10,8 17 9 33 18 ESE 0,0
20.06.2018 18:00:00 29,5 10,6 16 9 34 18 ESE 0,0
20.06.2018 17:00:00 30,0 11,4 14 8 35 19 ESE 0,0
20.06.2018 16:00:00 30,0 11,4 15 8 31 17 ESE 0,0
20.06.2018 15:00:00 30,3 11,8 10 6 29 16 E 0,0
20.06.2018 14:00:00 28,7 11,3 16 9 28 15 SE -
20.06.2018 13:00:00 27,8 11,8 12 7 24 13 SE 0,0
20.06.2018 12:00:00 26,4 11,3 8 5 22 12 SE 0,0
20.06.2018 11:00:00 24,9 12,1 4 2 14 8 E 0,0
20.06.2018 10:00:00 21,4 12,5 8 4 14 7 W 0,0
20.06.2018 09:00:00 18,7 12,8 5 3 13 7 WNW 0,0
20.06.2018 08:00:00 16,2 12,0 9 5 13 7 W -
20.06.2018 07:00:00 15,1 12,0 1 1 6 3 W 0,0
20.06.2018 06:00:00 15,7 12,2 2 1 - - W -
20.06.2018 05:00:00 15,2 11,6 0 0 1 1 N 0,0
20.06.2018 04:00:00 17,6 12,1 0 0 6 3 N 0,0
20.06.2018 03:00:00 17,6 12,1 3 1 7 4 ESE 0,0
20.06.2018 02:00:00 18,6 12,8 0 0 4 2 N -
20.06.2018 01:00:00 19,8 12,5 2 1 13 7 E 0,0
20.06.2018 00:00:00 20,7 11,9 7 4 17 9 ESE 0,0
19.06.2018 23:00:00 21,6 11,3 11 6 27 14 ESE 0,0
19.06.2018 22:00:00 22,5 11,2 15 8 27 15 SE 0,0
19.06.2018 21:00:00 24,0 11,3 16 8 31 17 ESE 0,0
19.06.2018 20:00:00 25,3 11,1 18 10 34 19 ESE -
19.06.2018 19:00:00 26,4 10,9 18 10 35 19 ESE 0,0
19.06.2018 18:00:00 27,5 11,6 18 10 36 20 ESE 0,0
19.06.2018 17:00:00 27,8 11,3 17 9 35 19 ESE 0,0
19.06.2018 16:00:00 28,1 11,2 16 9 31 17 ESE 0,0
19.06.2018 15:00:00 28,3 11,8 16 8 34 18 ESE 0,0
19.06.2018 14:00:00 27,7 12,5 16 9 27 14 ESE -
19.06.2018 13:00:00 26,7 12,3 13 7 27 14 ESE 0,0
19.06.2018 12:00:00 25,8 13,0 10 5 23 13 ESE 0,0
19.06.2018 11:00:00 24,4 13,3 10 5 23 12 SE 0,0
19.06.2018 10:00:00 23,0 13,8 9 5 14 8 SE 0,0
19.06.2018 09:00:00 19,7 14,7 0 0 5 3 N 0,0
19.06.2018 08:00:00 16,7 14,7 0 0 5 3 N -
19.06.2018 07:00:00 15,8 14,1 0 0 0 0 N 0,0
19.06.2018 06:00:00 15,9 14,0 0 0 0 0 N 0,0
19.06.2018 05:00:00 16,9 14,7 0 0 5 3 N 0,0
19.06.2018 04:00:00 17,0 15,0 0 0 5 3 N 0,0
19.06.2018 03:00:00 17,9 15,3 0 0 9 5 N 0,0
19.06.2018 02:00:00 18,7 16,0 4 2 9 5 ESE -
19.06.2018 01:00:00 19,5 15,3 3 2 9 5 E 0,0
19.06.2018 00:00:00 20,5 15,3 5 3 10 5 ESE 0,0
18.06.2018 23:00:00 21,6 15,0 6 4 22 12 SSE 0,0
18.06.2018 22:00:00 22,2 14,3 14 8 29 15 SE 0,0
18.06.2018 21:00:00 23,6 12,8 18 10 34 18 SE 0,0
18.06.2018 20:00:00 25,5 12,3 19 10 36 19 SE -
18.06.2018 19:00:00 26,9 12,1 23 12 35 19 SE 0,0
18.06.2018 18:00:00 28,0 12,3 20 11 38 21 ESE 0,0
18.06.2018 17:00:00 28,8 12,6 19 10 36 19 ESE 0,0
18.06.2018 16:00:00 29,5 13,3 19 10 33 18 SE 0,0
18.06.2018 15:00:00 30,3 12,6 15 8 27 15 ESE 0,0
18.06.2018 14:00:00 29,5 12,0 11 6 26 14 ESE -
18.06.2018 13:00:00 28,1 10,8 15 8 27 14 SE 0,1
18.06.2018 12:00:00 26,8 11,3 9 5 21 11 ESE 0,0
18.06.2018 11:00:00 25,4 12,2 1 0 10 6 N 0,0
18.06.2018 10:00:00 22,0 12,2 6 3 13 7 W 0,0
18.06.2018 09:00:00 19,9 12,4 9 5 14 7 W 0,0
18.06.2018 08:00:00 17,8 12,4 4 2 8 5 WNW -
18.06.2018 07:00:00 16,8 11,9 6 4 9 5 W 0,0
18.06.2018 06:00:00 16,9 12,0 2 1 8 5 WNW 0,0
18.06.2018 05:00:00 17,3 12,0 3 1 6 3 W 0,0
18.06.2018 04:00:00 17,0 11,2 0 0 0 0 N 0,0
18.06.2018 03:00:00 18,7 12,2 1 1 8 4 ENE 0,0
18.06.2018 02:00:00 19,1 13,5 0 0 1 1 E -
18.06.2018 01:00:00 20,0 12,7 0 0 13 7 E 0,0
18.06.2018 00:00:00 21,4 12,0 10 5 20 11 SSE 0,0
17.06.2018 23:00:00 22,3 10,2 11 6 25 13 SE 0,0
17.06.2018 22:00:00 23,4 9,8 12 7 27 14 ESE 0,0
17.06.2018 21:00:00 24,7 9,4 15 8 31 17 ESE 0,0
17.06.2018 20:00:00 26,5 9,8 19 10 36 19 ESE -
17.06.2018 19:00:00 28,4 10,2 19 10 33 18 ESE 0,0
17.06.2018 18:00:00 29,9 10,9 16 9 31 17 SE 0,0
17.06.2018 17:00:00 30,5 11,0 16 9 33 18 SE 0,0
17.06.2018 16:00:00 31,1 10,4 13 7 26 14 SE 0,0
17.06.2018 15:00:00 30,1 9,6 13 7 24 13 ESE 0,0
17.06.2018 14:00:00 29,3 8,9 11 6 26 14 ESE -
17.06.2018 13:00:00 28,5 8,3 11 6 23 13 ESE 0,0
17.06.2018 12:00:00 27,2 7,6 10 6 - - SE -
17.06.2018 11:00:00 25,0 8,9 1 1 11 6 E 0,0
17.06.2018 10:00:00 21,3 13,3 6 4 10 5 W 0,0
17.06.2018 09:00:00 19,3 13,3 4 2 10 6 WNW 0,0
17.06.2018 08:00:00 17,7 12,5 5 3 9 5 W -
17.06.2018 07:00:00 16,9 12,8 4 2 6 3 W 0,0
17.06.2018 06:00:00 17,5 12,8 2 1 7 4 W 0,0
17.06.2018 05:00:00 18,2 14,3 5 3 7 4 W 0,0
17.06.2018 04:00:00 18,0 14,7 0 0 0 0 N 0,0
17.06.2018 03:00:00 17,9 14,2 0 0 1 1 N 0,0
17.06.2018 02:00:00 19,3 14,3 1 0 8 4 E -
17.06.2018 01:00:00 20,6 13,1 4 2 19 10 SE 0,0
17.06.2018 00:00:00 21,2 14,1 12 6 25 14 SE 0,0
16.06.2018 23:00:00 21,8 10,3 17 9 27 15 SE 0,0
16.06.2018 22:00:00 22,8 10,3 18 10 29 16 SE 0,0
16.06.2018 21:00:00 24,2 8,9 18 10 34 18 SE 0,0
16.06.2018 20:00:00 26,0 8,0 18 10 35 19 SE -

tt = temperature
td = dewpoint
ff = wind speed
fx = gusts
dd = wind direction
rr = precipitation

Next stations